sensor_id;sensor_type;location;lat;lon;timestamp;P1;durP1;ratioP1;P2;durP2;ratioP2
15449;SDS011;7826;49.784;9.934;2022-08-01T00:01:18;2.53;;;2.37;;
15449;SDS011;7826;49.784;9.934;2022-08-01T00:03:44;2.27;;;2.17;;
15449;SDS011;7826;49.784;9.934;2022-08-01T00:06:10;2.83;;;2.53;;
15449;SDS011;7826;49.784;9.934;2022-08-01T00:08:36;2.17;;;2.07;;
15449;SDS011;7826;49.784;9.934;2022-08-01T00:11:03;2.40;;;2.20;;
15449;SDS011;7826;49.784;9.934;2022-08-01T00:13:29;2.60;;;2.10;;
15449;SDS011;7826;49.784;9.934;2022-08-01T00:15:55;2.50;;;2.30;;
15449;SDS011;7826;49.784;9.934;2022-08-01T00:18:21;2.50;;;2.30;;
15449;SDS011;7826;49.784;9.934;2022-08-01T00:20:48;2.43;;;2.30;;
15449;SDS011;7826;49.784;9.934;2022-08-01T00:23:14;2.07;;;1.90;;
15449;SDS011;7826;49.784;9.934;2022-08-01T00:25:40;2.50;;;2.30;;
15449;SDS011;7826;49.784;9.934;2022-08-01T00:28:07;2.37;;;2.23;;
15449;SDS011;7826;49.784;9.934;2022-08-01T00:30:34;2.17;;;2.07;;
15449;SDS011;7826;49.784;9.934;2022-08-01T00:33:02;2.43;;;2.23;;
15449;SDS011;7826;49.784;9.934;2022-08-01T00:35:28;2.20;;;2.10;;
15449;SDS011;7826;49.784;9.934;2022-08-01T00:37:55;2.40;;;2.20;;
15449;SDS011;7826;49.784;9.934;2022-08-01T00:40:21;2.33;;;2.20;;
15449;SDS011;7826;49.784;9.934;2022-08-01T00:42:47;2.50;;;2.30;;
15449;SDS011;7826;49.784;9.934;2022-08-01T00:45:14;2.57;;;2.20;;
15449;SDS011;7826;49.784;9.934;2022-08-01T00:47:40;2.50;;;2.30;;
15449;SDS011;7826;49.784;9.934;2022-08-01T00:50:07;2.67;;;2.47;;
15449;SDS011;7826;49.784;9.934;2022-08-01T00:52:34;3.17;;;2.50;;
15449;SDS011;7826;49.784;9.934;2022-08-01T00:55:01;2.30;;;2.20;;
15449;SDS011;7826;49.784;9.934;2022-08-01T00:57:28;2.40;;;2.20;;
15449;SDS011;7826;49.784;9.934;2022-08-01T00:59:55;2.10;;;2.00;;
15449;SDS011;7826;49.784;9.934;2022-08-01T01:02:21;2.50;;;2.30;;
15449;SDS011;7826;49.784;9.934;2022-08-01T01:04:48;2.50;;;2.30;;
15449;SDS011;7826;49.784;9.934;2022-08-01T01:09:59;2.33;;;2.23;;
15449;SDS011;7826;49.784;9.934;2022-08-01T01:12:35;2.27;;;2.10;;
15449;SDS011;7826;49.784;9.934;2022-08-01T01:15:32;3.10;;;2.27;;
15449;SDS011;7826;49.784;9.934;2022-08-01T01:20:38;2.40;;;2.20;;
15449;SDS011;7826;49.784;9.934;2022-08-01T01:29:14;2.37;;;2.27;;
15449;SDS011;7826;49.784;9.934;2022-08-01T01:31:43;2.53;;;2.20;;
15449;SDS011;7826;49.784;9.934;2022-08-01T01:34:45;3.10;;;2.20;;
15449;SDS011;7826;49.784;9.934;2022-08-01T01:37:17;2.43;;;2.30;;
15449;SDS011;7826;49.784;9.934;2022-08-01T01:39:52;2.60;;;2.40;;
15449;SDS011;7826;49.784;9.934;2022-08-01T01:42:20;2.53;;;2.33;;
15449;SDS011;7826;49.784;9.934;2022-08-01T01:44:47;2.87;;;2.67;;
15449;SDS011;7826;49.784;9.934;2022-08-01T01:47:16;2.43;;;2.23;;
15449;SDS011;7826;49.784;9.934;2022-08-01T01:49:44;3.00;;;2.70;;
15449;SDS011;7826;49.784;9.934;2022-08-01T01:52:13;2.90;;;2.50;;
15449;SDS011;7826;49.784;9.934;2022-08-01T01:54:44;2.97;;;2.27;;
15449;SDS011;7826;49.784;9.934;2022-08-01T01:57:13;2.60;;;2.40;;
15449;SDS011;7826;49.784;9.934;2022-08-01T01:59:42;2.53;;;2.33;;
15449;SDS011;7826;49.784;9.934;2022-08-01T02:02:11;2.60;;;2.40;;
15449;SDS011;7826;49.784;9.934;2022-08-01T02:04:40;3.30;;;2.30;;
15449;SDS011;7826;49.784;9.934;2022-08-01T02:07:12;3.43;;;2.20;;
15449;SDS011;7826;49.784;9.934;2022-08-01T02:09:42;2.70;;;2.50;;
15449;SDS011;7826;49.784;9.934;2022-08-01T02:12:12;2.60;;;2.40;;
15449;SDS011;7826;49.784;9.934;2022-08-01T02:14:41;2.70;;;2.50;;
15449;SDS011;7826;49.784;9.934;2022-08-01T02:17:10;2.97;;;2.70;;
15449;SDS011;7826;49.784;9.934;2022-08-01T02:19:41;2.70;;;2.50;;
15449;SDS011;7826;49.784;9.934;2022-08-01T02:22:08;3.57;;;2.80;;
15449;SDS011;7826;49.784;9.934;2022-08-01T02:24:50;2.87;;;2.67;;
15449;SDS011;7826;49.784;9.934;2022-08-01T02:27:28;3.07;;;2.87;;
15449;SDS011;7826;49.784;9.934;2022-08-01T02:30:06;3.50;;;2.83;;
15449;SDS011;7826;49.784;9.934;2022-08-01T02:32:40;3.87;;;2.93;;
15449;SDS011;7826;49.784;9.934;2022-08-01T02:35:11;2.90;;;2.70;;
15449;SDS011;7826;49.784;9.934;2022-08-01T02:37:58;3.00;;;2.80;;
15449;SDS011;7826;49.784;9.934;2022-08-01T02:40:27;3.57;;;3.17;;
15449;SDS011;7826;49.784;9.934;2022-08-01T02:42:55;3.10;;;2.80;;
15449;SDS011;7826;49.784;9.934;2022-08-01T02:45:24;3.17;;;2.83;;
15449;SDS011;7826;49.784;9.934;2022-08-01T02:47:53;3.20;;;3.00;;
15449;SDS011;7826;49.784;9.934;2022-08-01T02:50:24;2.83;;;2.63;;
15449;SDS011;7826;49.784;9.934;2022-08-01T02:52:53;3.23;;;2.93;;
15449;SDS011;7826;49.784;9.934;2022-08-01T02:55:21;3.53;;;2.67;;
15449;SDS011;7826;49.784;9.934;2022-08-01T02:57:48;3.03;;;2.83;;
15449;SDS011;7826;49.784;9.934;2022-08-01T03:00:18;3.03;;;2.60;;
15449;SDS011;7826;49.784;9.934;2022-08-01T03:02:44;2.67;;;2.30;;
15449;SDS011;7826;49.784;9.934;2022-08-01T03:05:14;3.10;;;2.80;;
15449;SDS011;7826;49.784;9.934;2022-08-01T03:07:43;2.93;;;2.73;;
15449;SDS011;7826;49.784;9.934;2022-08-01T03:10:11;3.70;;;2.90;;
15449;SDS011;7826;49.784;9.934;2022-08-01T03:12:39;3.43;;;3.13;;
15449;SDS011;7826;49.784;9.934;2022-08-01T03:15:07;3.10;;;2.90;;
15449;SDS011;7826;49.784;9.934;2022-08-01T03:17:34;5.57;;;2.73;;
15449;SDS011;7826;49.784;9.934;2022-08-01T03:20:03;3.10;;;2.80;;
15449;SDS011;7826;49.784;9.934;2022-08-01T03:22:30;3.00;;;2.70;;
15449;SDS011;7826;49.784;9.934;2022-08-01T03:24:58;3.03;;;2.73;;
15449;SDS011;7826;49.784;9.934;2022-08-01T03:27:26;2.93;;;2.67;;
15449;SDS011;7826;49.784;9.934;2022-08-01T03:29:54;2.67;;;2.47;;
15449;SDS011;7826;49.784;9.934;2022-08-01T03:32:22;2.40;;;2.30;;
15449;SDS011;7826;49.784;9.934;2022-08-01T03:34:50;2.60;;;2.40;;
15449;SDS011;7826;49.784;9.934;2022-08-01T03:37:21;2.77;;;2.57;;
15449;SDS011;7826;49.784;9.934;2022-08-01T03:40:25;2.27;;;2.07;;
15449;SDS011;7826;49.784;9.934;2022-08-01T03:42:48;2.77;;;2.57;;
15449;SDS011;7826;49.784;9.934;2022-08-01T03:45:22;2.50;;;2.30;;
15449;SDS011;7826;49.784;9.934;2022-08-01T03:47:59;2.60;;;2.40;;
15449;SDS011;7826;49.784;9.934;2022-08-01T03:50:27;2.67;;;2.23;;
15449;SDS011;7826;49.784;9.934;2022-08-01T03:52:57;2.60;;;2.40;;
15449;SDS011;7826;49.784;9.934;2022-08-01T03:55:42;2.30;;;2.10;;
15449;SDS011;7826;49.784;9.934;2022-08-01T03:58:09;2.97;;;2.10;;
15449;SDS011;7826;49.784;9.934;2022-08-01T04:00:37;2.17;;;2.07;;
15449;SDS011;7826;49.784;9.934;2022-08-01T04:03:06;1.93;;;1.83;;
15449;SDS011;7826;49.784;9.934;2022-08-01T04:05:33;2.50;;;2.30;;
15449;SDS011;7826;49.784;9.934;2022-08-01T04:08:02;2.30;;;2.10;;
15449;SDS011;7826;49.784;9.934;2022-08-01T04:10:29;2.43;;;2.10;;
15449;SDS011;7826;49.784;9.934;2022-08-01T04:12:55;3.13;;;2.83;;
15449;SDS011;7826;49.784;9.934;2022-08-01T04:15:22;2.43;;;2.20;;
15449;SDS011;7826;49.784;9.934;2022-08-01T04:17:49;2.97;;;2.57;;
15449;SDS011;7826;49.784;9.934;2022-08-01T04:20:16;2.60;;;2.40;;
15449;SDS011;7826;49.784;9.934;2022-08-01T04:22:43;2.10;;;2.00;;
15449;SDS011;7826;49.784;9.934;2022-08-01T04:25:11;2.57;;;2.37;;
15449;SDS011;7826;49.784;9.934;2022-08-01T04:27:42;2.57;;;2.37;;
15449;SDS011;7826;49.784;9.934;2022-08-01T04:30:12;2.53;;;2.33;;
15449;SDS011;7826;49.784;9.934;2022-08-01T04:32:40;2.10;;;2.00;;
15449;SDS011;7826;49.784;9.934;2022-08-01T04:35:10;2.00;;;1.90;;
15449;SDS011;7826;49.784;9.934;2022-08-01T04:37:39;2.43;;;2.23;;
15449;SDS011;7826;49.784;9.934;2022-08-01T04:40:08;2.70;;;2.50;;
15449;SDS011;7826;49.784;9.934;2022-08-01T04:42:35;3.13;;;2.47;;
15449;SDS011;7826;49.784;9.934;2022-08-01T04:45:01;2.70;;;2.40;;
15449;SDS011;7826;49.784;9.934;2022-08-01T04:47:28;2.77;;;2.57;;
15449;SDS011;7826;49.784;9.934;2022-08-01T04:49:56;2.70;;;2.50;;
15449;SDS011;7826;49.784;9.934;2022-08-01T04:52:22;3.10;;;2.60;;
15449;SDS011;7826;49.784;9.934;2022-08-01T04:54:49;2.67;;;2.47;;
15449;SDS011;7826;49.784;9.934;2022-08-01T04:57:15;3.03;;;2.70;;
15449;SDS011;7826;49.784;9.934;2022-08-01T04:59:42;3.37;;;2.57;;
15449;SDS011;7826;49.784;9.934;2022-08-01T05:02:14;2.20;;;2.00;;
15449;SDS011;7826;49.784;9.934;2022-08-01T05:04:42;3.17;;;2.10;;
15449;SDS011;7826;49.784;9.934;2022-08-01T05:07:10;2.17;;;2.07;;
15449;SDS011;7826;49.784;9.934;2022-08-01T05:09:37;2.27;;;2.10;;
15449;SDS011;7826;49.784;9.934;2022-08-01T05:12:07;2.57;;;2.27;;
15449;SDS011;7826;49.784;9.934;2022-08-01T05:14:34;2.00;;;1.80;;
15449;SDS011;7826;49.784;9.934;2022-08-01T05:17:01;2.07;;;1.87;;
15449;SDS011;7826;49.784;9.934;2022-08-01T05:19:30;2.10;;;1.80;;
15449;SDS011;7826;49.784;9.934;2022-08-01T05:22:00;1.53;;;1.43;;
15449;SDS011;7826;49.784;9.934;2022-08-01T05:24:27;1.67;;;1.57;;
15449;SDS011;7826;49.784;9.934;2022-08-01T05:26:55;1.60;;;1.50;;
15449;SDS011;7826;49.784;9.934;2022-08-01T05:29:22;1.73;;;1.60;;
15449;SDS011;7826;49.784;9.934;2022-08-01T05:31:49;1.67;;;1.57;;
15449;SDS011;7826;49.784;9.934;2022-08-01T05:34:16;1.63;;;1.53;;
15449;SDS011;7826;49.784;9.934;2022-08-01T05:36:43;1.90;;;1.60;;
15449;SDS011;7826;49.784;9.934;2022-08-01T05:39:10;2.13;;;2.03;;
15449;SDS011;7826;49.784;9.934;2022-08-01T05:41:37;1.87;;;1.70;;
15449;SDS011;7826;49.784;9.934;2022-08-01T05:44:04;2.30;;;1.60;;
15449;SDS011;7826;49.784;9.934;2022-08-01T05:46:30;2.20;;;2.00;;
15449;SDS011;7826;49.784;9.934;2022-08-01T05:48:57;1.70;;;1.60;;
15449;SDS011;7826;49.784;9.934;2022-08-01T05:51:24;3.13;;;1.70;;
15449;SDS011;7826;49.784;9.934;2022-08-01T05:53:51;1.50;;;1.40;;
15449;SDS011;7826;49.784;9.934;2022-08-01T05:56:18;1.70;;;1.60;;
15449;SDS011;7826;49.784;9.934;2022-08-01T05:58:44;1.70;;;1.60;;
15449;SDS011;7826;49.784;9.934;2022-08-01T06:01:10;1.80;;;1.70;;
15449;SDS011;7826;49.784;9.934;2022-08-01T06:03:37;1.63;;;1.53;;
15449;SDS011;7826;49.784;9.934;2022-08-01T06:06:04;1.77;;;1.67;;
15449;SDS011;7826;49.784;9.934;2022-08-01T06:08:31;1.53;;;1.43;;
15449;SDS011;7826;49.784;9.934;2022-08-01T06:10:57;1.50;;;1.40;;
15449;SDS011;7826;49.784;9.934;2022-08-01T06:13:24;1.53;;;1.43;;
15449;SDS011;7826;49.784;9.934;2022-08-01T06:15:51;1.50;;;1.40;;
15449;SDS011;7826;49.784;9.934;2022-08-01T06:18:17;2.20;;;1.60;;
15449;SDS011;7826;49.784;9.934;2022-08-01T06:20:43;1.60;;;1.50;;
15449;SDS011;7826;49.784;9.934;2022-08-01T06:23:10;2.30;;;1.70;;
15449;SDS011;7826;49.784;9.934;2022-08-01T06:25:37;1.70;;;1.60;;
15449;SDS011;7826;49.784;9.934;2022-08-01T06:28:03;1.80;;;1.70;;
15449;SDS011;7826;49.784;9.934;2022-08-01T06:30:30;1.43;;;1.33;;
15449;SDS011;7826;49.784;9.934;2022-08-01T06:32:56;1.83;;;1.50;;
15449;SDS011;7826;49.784;9.934;2022-08-01T06:35:24;1.63;;;1.53;;
15449;SDS011;7826;49.784;9.934;2022-08-01T06:37:52;1.50;;;1.40;;
15449;SDS011;7826;49.784;9.934;2022-08-01T06:40:18;1.93;;;1.50;;
15449;SDS011;7826;49.784;9.934;2022-08-01T06:42:45;1.73;;;1.60;;
15449;SDS011;7826;49.784;9.934;2022-08-01T06:45:12;1.30;;;1.20;;
15449;SDS011;7826;49.784;9.934;2022-08-01T06:47:40;1.73;;;1.37;;
15449;SDS011;7826;49.784;9.934;2022-08-01T06:50:08;2.47;;;1.63;;
15449;SDS011;7826;49.784;9.934;2022-08-01T06:52:36;1.70;;;1.60;;
15449;SDS011;7826;49.784;9.934;2022-08-01T06:55:03;1.70;;;1.60;;
15449;SDS011;7826;49.784;9.934;2022-08-01T06:57:30;2.23;;;1.47;;
15449;SDS011;7826;49.784;9.934;2022-08-01T07:00:00;1.83;;;1.60;;
15449;SDS011;7826;49.784;9.934;2022-08-01T07:02:29;1.80;;;1.70;;
15449;SDS011;7826;49.784;9.934;2022-08-01T07:04:55;1.60;;;1.50;;
15449;SDS011;7826;49.784;9.934;2022-08-01T07:07:26;1.70;;;1.60;;
15449;SDS011;7826;49.784;9.934;2022-08-01T07:09:53;1.70;;;1.60;;
15449;SDS011;7826;49.784;9.934;2022-08-01T07:12:19;1.73;;;1.63;;
15449;SDS011;7826;49.784;9.934;2022-08-01T07:14:45;1.77;;;1.67;;
15449;SDS011;7826;49.784;9.934;2022-08-01T07:17:12;1.70;;;1.60;;
15449;SDS011;7826;49.784;9.934;2022-08-01T07:19:38;1.70;;;1.60;;
15449;SDS011;7826;49.784;9.934;2022-08-01T07:22:05;1.63;;;1.53;;
15449;SDS011;7826;49.784;9.934;2022-08-01T07:24:31;2.20;;;2.10;;
15449;SDS011;7826;49.784;9.934;2022-08-01T07:26:57;1.60;;;1.50;;
15449;SDS011;7826;49.784;9.934;2022-08-01T07:29:24;1.70;;;1.60;;
15449;SDS011;7826;49.784;9.934;2022-08-01T07:31:53;1.90;;;1.80;;
15449;SDS011;7826;49.784;9.934;2022-08-01T07:34:21;2.10;;;2.00;;
15449;SDS011;7826;49.784;9.934;2022-08-01T07:36:49;1.90;;;1.80;;
15449;SDS011;7826;49.784;9.934;2022-08-01T07:39:16;2.00;;;1.90;;
15449;SDS011;7826;49.784;9.934;2022-08-01T07:41:42;2.30;;;2.10;;
15449;SDS011;7826;49.784;9.934;2022-08-01T07:44:09;2.10;;;1.90;;
15449;SDS011;7826;49.784;9.934;2022-08-01T07:46:35;2.00;;;1.90;;
15449;SDS011;7826;49.784;9.934;2022-08-01T07:49:02;2.37;;;2.17;;
15449;SDS011;7826;49.784;9.934;2022-08-01T07:51:28;2.00;;;1.90;;
15449;SDS011;7826;49.784;9.934;2022-08-01T07:53:54;1.97;;;1.87;;
15449;SDS011;7826;49.784;9.934;2022-08-01T07:56:21;2.00;;;1.90;;
15449;SDS011;7826;49.784;9.934;2022-08-01T07:58:49;2.03;;;1.90;;
15449;SDS011;7826;49.784;9.934;2022-08-01T08:01:16;1.83;;;1.73;;
15449;SDS011;7826;49.784;9.934;2022-08-01T08:03:43;1.38;;;1.35;;
15449;SDS011;7826;49.784;9.934;2022-08-01T08:06:10;1.73;;;1.60;;
15449;SDS011;7826;49.784;9.934;2022-08-01T08:08:36;2.83;;;2.00;;
15449;SDS011;7826;49.784;9.934;2022-08-01T08:11:03;1.80;;;1.70;;
15449;SDS011;7826;49.784;9.934;2022-08-01T08:13:29;2.00;;;1.90;;
15449;SDS011;7826;49.784;9.934;2022-08-01T08:15:55;1.70;;;1.60;;
15449;SDS011;7826;49.784;9.934;2022-08-01T08:18:24;2.13;;;1.93;;
15449;SDS011;7826;49.784;9.934;2022-08-01T08:20:50;2.17;;;1.97;;
15449;SDS011;7826;49.784;9.934;2022-08-01T08:23:17;1.90;;;1.80;;
15449;SDS011;7826;49.784;9.934;2022-08-01T08:26:02;1.73;;;1.63;;
15449;SDS011;7826;49.784;9.934;2022-08-01T08:28:29;1.97;;;1.87;;
15449;SDS011;7826;49.784;9.934;2022-08-01T08:30:55;2.10;;;2.00;;
15449;SDS011;7826;49.784;9.934;2022-08-01T08:33:22;2.13;;;1.80;;
15449;SDS011;7826;49.784;9.934;2022-08-01T08:35:49;1.80;;;1.70;;
15449;SDS011;7826;49.784;9.934;2022-08-01T08:38:16;1.97;;;1.87;;
15449;SDS011;7826;49.784;9.934;2022-08-01T08:40:43;2.43;;;2.10;;
15449;SDS011;7826;49.784;9.934;2022-08-01T08:43:10;1.93;;;1.83;;
15449;SDS011;7826;49.784;9.934;2022-08-01T08:45:37;2.00;;;1.90;;
15449;SDS011;7826;49.784;9.934;2022-08-01T08:48:05;2.03;;;1.93;;
15449;SDS011;7826;49.784;9.934;2022-08-01T08:50:31;2.00;;;1.90;;
15449;SDS011;7826;49.784;9.934;2022-08-01T08:52:58;2.10;;;1.90;;
15449;SDS011;7826;49.784;9.934;2022-08-01T08:55:27;1.93;;;1.80;;
15449;SDS011;7826;49.784;9.934;2022-08-01T08:57:54;1.80;;;1.70;;
15449;SDS011;7826;49.784;9.934;2022-08-01T09:00:21;1.60;;;1.50;;
15449;SDS011;7826;49.784;9.934;2022-08-01T09:02:48;1.70;;;1.60;;
15449;SDS011;7826;49.784;9.934;2022-08-01T09:05:15;1.90;;;1.80;;
15449;SDS011;7826;49.784;9.934;2022-08-01T09:07:43;1.60;;;1.50;;
15449;SDS011;7826;49.784;9.934;2022-08-01T09:10:09;1.83;;;1.73;;
15449;SDS011;7826;49.784;9.934;2022-08-01T09:12:37;2.00;;;1.90;;
15449;SDS011;7826;49.784;9.934;2022-08-01T09:15:03;1.93;;;1.83;;
15449;SDS011;7826;49.784;9.934;2022-08-01T09:17:38;1.70;;;1.60;;
15449;SDS011;7826;49.784;9.934;2022-08-01T09:20:06;2.07;;;1.87;;
15449;SDS011;7826;49.784;9.934;2022-08-01T09:22:33;1.80;;;1.70;;
15449;SDS011;7826;49.784;9.934;2022-08-01T09:25:01;1.67;;;1.57;;
15449;SDS011;7826;49.784;9.934;2022-08-01T09:27:36;1.60;;;1.50;;
15449;SDS011;7826;49.784;9.934;2022-08-01T09:30:11;1.93;;;1.73;;
15449;SDS011;7826;49.784;9.934;2022-08-01T09:32:55;1.40;;;1.30;;
15449;SDS011;7826;49.784;9.934;2022-08-01T09:35:23;1.63;;;1.57;;
15449;SDS011;7826;49.784;9.934;2022-08-01T09:37:50;1.70;;;1.60;;
15449;SDS011;7826;49.784;9.934;2022-08-01T09:40:16;1.73;;;1.63;;
15449;SDS011;7826;49.784;9.934;2022-08-01T09:42:43;1.73;;;1.63;;
15449;SDS011;7826;49.784;9.934;2022-08-01T09:45:31;1.90;;;1.80;;
15449;SDS011;7826;49.784;9.934;2022-08-01T09:47:58;1.90;;;1.80;;
15449;SDS011;7826;49.784;9.934;2022-08-01T09:50:47;1.80;;;1.70;;
15449;SDS011;7826;49.784;9.934;2022-08-01T09:53:18;1.67;;;1.57;;
15449;SDS011;7826;49.784;9.934;2022-08-01T09:55:45;1.70;;;1.60;;
15449;SDS011;7826;49.784;9.934;2022-08-01T09:58:12;3.10;;;1.77;;
15449;SDS011;7826;49.784;9.934;2022-08-01T10:00:39;1.50;;;1.40;;
15449;SDS011;7826;49.784;9.934;2022-08-01T10:03:22;1.67;;;1.57;;
15449;SDS011;7826;49.784;9.934;2022-08-01T10:05:50;1.15;;;1.15;;
15449;SDS011;7826;49.784;9.934;2022-08-01T10:08:19;1.27;;;1.27;;
15449;SDS011;7826;49.784;9.934;2022-08-01T10:11:06;1.33;;;1.30;;
15449;SDS011;7826;49.784;9.934;2022-08-01T10:13:34;1.60;;;1.50;;
15449;SDS011;7826;49.784;9.934;2022-08-01T10:16:01;1.40;;;1.40;;
15449;SDS011;7826;49.784;9.934;2022-08-01T10:18:31;1.35;;;1.35;;
15449;SDS011;7826;49.784;9.934;2022-08-01T10:21:00;1.42;;;1.40;;
15449;SDS011;7826;49.784;9.934;2022-08-01T10:23:27;1.52;;;1.42;;
15449;SDS011;7826;49.784;9.934;2022-08-01T10:26:00;1.57;;;1.47;;
15449;SDS011;7826;49.784;9.934;2022-08-01T10:28:27;1.40;;;1.30;;
15449;SDS011;7826;49.784;9.934;2022-08-01T10:30:57;1.47;;;1.40;;
15449;SDS011;7826;49.784;9.934;2022-08-01T10:33:24;2.00;;;1.40;;
15449;SDS011;7826;49.784;9.934;2022-08-01T10:35:51;1.30;;;1.30;;
15449;SDS011;7826;49.784;9.934;2022-08-01T10:38:29;1.10;;;1.10;;
15449;SDS011;7826;49.784;9.934;2022-08-01T10:40:56;1.37;;;1.30;;
15449;SDS011;7826;49.784;9.934;2022-08-01T10:43:25;1.50;;;1.40;;
15449;SDS011;7826;49.784;9.934;2022-08-01T10:45:51;1.67;;;1.53;;
15449;SDS011;7826;49.784;9.934;2022-08-01T10:48:20;1.23;;;1.23;;
15449;SDS011;7826;49.784;9.934;2022-08-01T10:51:01;2.03;;;1.43;;
15449;SDS011;7826;49.784;9.934;2022-08-01T10:53:29;1.53;;;1.43;;
15449;SDS011;7826;49.784;9.934;2022-08-01T11:09:05;1.40;;;1.40;;
15449;SDS011;7826;49.784;9.934;2022-08-01T11:15:19;1.37;;;1.27;;
15449;SDS011;7826;49.784;9.934;2022-08-01T11:17:30;1.40;;;1.30;;
15449;SDS011;7826;49.784;9.934;2022-08-01T11:38:38;1.30;;;1.30;;
15449;SDS011;7826;49.784;9.934;2022-08-01T11:41:16;1.10;;;1.10;;
15449;SDS011;7826;49.784;9.934;2022-08-01T11:52:10;1.10;;;1.10;;
15449;SDS011;7826;49.784;9.934;2022-08-01T11:54:41;1.40;;;1.30;;
15449;SDS011;7826;49.784;9.934;2022-08-01T11:57:13;1.23;;;1.20;;
15449;SDS011;7826;49.784;9.934;2022-08-01T11:59:48;1.13;;;1.13;;
15449;SDS011;7826;49.784;9.934;2022-08-01T12:02:28;1.40;;;1.30;;
15449;SDS011;7826;49.784;9.934;2022-08-01T12:04:59;1.73;;;1.63;;
15449;SDS011;7826;49.784;9.934;2022-08-01T12:07:28;1.43;;;1.27;;
15449;SDS011;7826;49.784;9.934;2022-08-01T12:09:58;1.40;;;1.40;;
15449;SDS011;7826;49.784;9.934;2022-08-01T12:12:31;1.20;;;1.20;;
15449;SDS011;7826;49.784;9.934;2022-08-01T12:15:00;1.07;;;1.00;;
15449;SDS011;7826;49.784;9.934;2022-08-01T12:17:31;1.10;;;1.10;;
15449;SDS011;7826;49.784;9.934;2022-08-01T12:20:00;1.40;;;1.30;;
15449;SDS011;7826;49.784;9.934;2022-08-01T12:22:28;1.57;;;1.47;;
15449;SDS011;7826;49.784;9.934;2022-08-01T12:24:55;1.63;;;1.53;;
15449;SDS011;7826;49.784;9.934;2022-08-01T12:27:30;1.57;;;1.50;;
15449;SDS011;7826;49.784;9.934;2022-08-01T12:29:58;1.37;;;1.30;;
15449;SDS011;7826;49.784;9.934;2022-08-01T12:32:29;1.60;;;1.50;;
15449;SDS011;7826;49.784;9.934;2022-08-01T12:35:01;1.37;;;1.27;;
15449;SDS011;7826;49.784;9.934;2022-08-01T12:37:28;1.80;;;1.60;;
15449;SDS011;7826;49.784;9.934;2022-08-01T12:39:55;1.50;;;1.40;;
15449;SDS011;7826;49.784;9.934;2022-08-01T12:42:23;1.70;;;1.60;;
15449;SDS011;7826;49.784;9.934;2022-08-01T12:44:51;1.70;;;1.60;;
15449;SDS011;7826;49.784;9.934;2022-08-01T12:47:18;1.23;;;1.23;;
15449;SDS011;7826;49.784;9.934;2022-08-01T12:49:46;1.80;;;1.70;;
15449;SDS011;7826;49.784;9.934;2022-08-01T12:52:15;2.13;;;1.43;;
15449;SDS011;7826;49.784;9.934;2022-08-01T12:58:09;1.50;;;1.40;;
15449;SDS011;7826;49.784;9.934;2022-08-01T13:00:40;1.50;;;1.40;;
15449;SDS011;7826;49.784;9.934;2022-08-01T13:03:10;1.50;;;1.40;;
15449;SDS011;7826;49.784;9.934;2022-08-01T13:05:43;2.23;;;1.33;;
15449;SDS011;7826;49.784;9.934;2022-08-01T13:08:16;1.17;;;1.17;;
15449;SDS011;7826;49.784;9.934;2022-08-01T13:10:43;1.53;;;1.43;;
15449;SDS011;7826;49.784;9.934;2022-08-01T13:13:10;2.13;;;1.73;;
15449;SDS011;7826;49.784;9.934;2022-08-01T13:15:39;1.60;;;1.50;;
15449;SDS011;7826;49.784;9.934;2022-08-01T13:18:22;1.60;;;1.50;;
15449;SDS011;7826;49.784;9.934;2022-08-01T13:21:06;2.00;;;1.90;;
15449;SDS011;7826;49.784;9.934;2022-08-01T13:24:00;1.70;;;1.60;;
15449;SDS011;7826;49.784;9.934;2022-08-01T13:26:40;1.90;;;1.80;;
15449;SDS011;7826;49.784;9.934;2022-08-01T13:29:09;2.47;;;2.00;;
15449;SDS011;7826;49.784;9.934;2022-08-01T13:31:38;1.90;;;1.80;;
15449;SDS011;7826;49.784;9.934;2022-08-01T13:34:05;1.67;;;1.57;;
15449;SDS011;7826;49.784;9.934;2022-08-01T13:36:32;1.80;;;1.70;;
15449;SDS011;7826;49.784;9.934;2022-08-01T13:39:00;1.80;;;1.70;;
15449;SDS011;7826;49.784;9.934;2022-08-01T13:41:49;1.73;;;1.63;;
15449;SDS011;7826;49.784;9.934;2022-08-01T13:44:15;1.87;;;1.77;;
15449;SDS011;7826;49.784;9.934;2022-08-01T13:46:42;1.90;;;1.80;;
15449;SDS011;7826;49.784;9.934;2022-08-01T13:49:10;1.80;;;1.70;;
15449;SDS011;7826;49.784;9.934;2022-08-01T13:51:37;1.67;;;1.57;;
15449;SDS011;7826;49.784;9.934;2022-08-01T13:54:04;2.00;;;1.90;;
15449;SDS011;7826;49.784;9.934;2022-08-01T13:56:31;1.70;;;1.60;;
15449;SDS011;7826;49.784;9.934;2022-08-01T13:58:58;1.83;;;1.73;;
15449;SDS011;7826;49.784;9.934;2022-08-01T14:01:24;2.00;;;1.80;;
15449;SDS011;7826;49.784;9.934;2022-08-01T14:03:51;2.10;;;2.00;;
15449;SDS011;7826;49.784;9.934;2022-08-01T14:06:17;1.93;;;1.73;;
15449;SDS011;7826;49.784;9.934;2022-08-01T14:08:46;1.80;;;1.70;;
15449;SDS011;7826;49.784;9.934;2022-08-01T14:11:12;1.90;;;1.80;;
15449;SDS011;7826;49.784;9.934;2022-08-01T14:13:39;1.73;;;1.63;;
15449;SDS011;7826;49.784;9.934;2022-08-01T14:16:06;1.70;;;1.60;;
15449;SDS011;7826;49.784;9.934;2022-08-01T14:18:32;2.83;;;1.53;;
15449;SDS011;7826;49.784;9.934;2022-08-01T14:20:59;2.00;;;1.80;;
15449;SDS011;7826;49.784;9.934;2022-08-01T14:23:26;1.80;;;1.70;;
15449;SDS011;7826;49.784;9.934;2022-08-01T14:25:52;1.70;;;1.60;;
15449;SDS011;7826;49.784;9.934;2022-08-01T14:28:19;1.70;;;1.60;;
15449;SDS011;7826;49.784;9.934;2022-08-01T14:30:46;1.90;;;1.80;;
15449;SDS011;7826;49.784;9.934;2022-08-01T14:33:12;1.77;;;1.67;;
15449;SDS011;7826;49.784;9.934;2022-08-01T14:35:39;2.30;;;1.67;;
15449;SDS011;7826;49.784;9.934;2022-08-01T14:38:06;2.43;;;1.70;;
15449;SDS011;7826;49.784;9.934;2022-08-01T14:40:33;1.80;;;1.70;;
15449;SDS011;7826;49.784;9.934;2022-08-01T14:43:00;1.87;;;1.67;;
15449;SDS011;7826;49.784;9.934;2022-08-01T14:45:27;1.80;;;1.70;;
15449;SDS011;7826;49.784;9.934;2022-08-01T14:47:54;1.67;;;1.50;;
15449;SDS011;7826;49.784;9.934;2022-08-01T14:50:20;2.10;;;2.00;;
15449;SDS011;7826;49.784;9.934;2022-08-01T14:52:47;1.80;;;1.70;;
15449;SDS011;7826;49.784;9.934;2022-08-01T14:55:13;2.20;;;2.10;;
15449;SDS011;7826;49.784;9.934;2022-08-01T14:57:40;1.83;;;1.70;;
15449;SDS011;7826;49.784;9.934;2022-08-01T15:00:07;1.70;;;1.60;;
15449;SDS011;7826;49.784;9.934;2022-08-01T15:02:39;1.70;;;1.60;;
15449;SDS011;7826;49.784;9.934;2022-08-01T15:05:06;1.70;;;1.60;;
15449;SDS011;7826;49.784;9.934;2022-08-01T15:07:33;1.60;;;1.50;;
15449;SDS011;7826;49.784;9.934;2022-08-01T15:10:00;1.70;;;1.60;;
15449;SDS011;7826;49.784;9.934;2022-08-01T15:12:27;1.77;;;1.67;;
15449;SDS011;7826;49.784;9.934;2022-08-01T15:14:53;1.70;;;1.60;;
15449;SDS011;7826;49.784;9.934;2022-08-01T15:17:26;1.60;;;1.50;;
15449;SDS011;7826;49.784;9.934;2022-08-01T15:19:59;1.60;;;1.50;;
15449;SDS011;7826;49.784;9.934;2022-08-01T15:22:27;1.90;;;1.80;;
15449;SDS011;7826;49.784;9.934;2022-08-01T15:24:55;1.80;;;1.70;;
15449;SDS011;7826;49.784;9.934;2022-08-01T15:27:23;1.80;;;1.70;;
15449;SDS011;7826;49.784;9.934;2022-08-01T15:29:50;1.80;;;1.70;;
15449;SDS011;7826;49.784;9.934;2022-08-01T15:32:16;1.60;;;1.50;;
15449;SDS011;7826;49.784;9.934;2022-08-01T15:34:43;1.60;;;1.50;;
15449;SDS011;7826;49.784;9.934;2022-08-01T15:37:10;1.60;;;1.50;;
15449;SDS011;7826;49.784;9.934;2022-08-01T15:39:37;1.80;;;1.70;;
15449;SDS011;7826;49.784;9.934;2022-08-01T15:42:11;1.70;;;1.60;;
15449;SDS011;7826;49.784;9.934;2022-08-01T15:44:39;1.60;;;1.50;;
15449;SDS011;7826;49.784;9.934;2022-08-01T15:47:06;1.80;;;1.70;;
15449;SDS011;7826;49.784;9.934;2022-08-01T15:49:34;1.70;;;1.60;;
15449;SDS011;7826;49.784;9.934;2022-08-01T15:52:05;2.17;;;1.90;;
15449;SDS011;7826;49.784;9.934;2022-08-01T15:54:32;1.63;;;1.53;;
15449;SDS011;7826;49.784;9.934;2022-08-01T15:56:59;1.70;;;1.60;;
15449;SDS011;7826;49.784;9.934;2022-08-01T15:59:25;1.83;;;1.73;;
15449;SDS011;7826;49.784;9.934;2022-08-01T16:01:52;1.77;;;1.67;;
15449;SDS011;7826;49.784;9.934;2022-08-01T16:04:18;1.70;;;1.60;;
15449;SDS011;7826;49.784;9.934;2022-08-01T16:06:46;1.90;;;1.80;;
15449;SDS011;7826;49.784;9.934;2022-08-01T16:09:13;1.80;;;1.70;;